sensor_id;sensor_type;location;lat;lon;timestamp;P1;durP1;ratioP1;P2;durP2;ratioP2
67675;SDS011;54456;48.436;10.028;2023-05-14T07:01:04;17.92;;;7.82;;
67675;SDS011;54456;48.436;10.028;2023-05-14T07:02:35;18.02;;;7.68;;
67675;SDS011;54456;48.436;10.028;2023-05-14T07:04:05;16.63;;;7.23;;
67675;SDS011;54456;48.436;10.028;2023-05-14T07:05:36;17.23;;;6.80;;
67675;SDS011;54456;48.436;10.028;2023-05-14T07:07:06;16.93;;;7.30;;
67675;SDS011;54456;48.436;10.028;2023-05-14T07:08:36;19.08;;;7.82;;
67675;SDS011;54456;48.436;10.028;2023-05-14T07:10:07;16.07;;;5.83;;
67675;SDS011;54456;48.436;10.028;2023-05-14T07:11:37;16.67;;;7.30;;
67675;SDS011;54456;48.436;10.028;2023-05-14T07:13:07;16.83;;;7.53;;
67675;SDS011;54456;48.436;10.028;2023-05-14T07:15:33;15.38;;;6.43;;
67675;SDS011;54456;48.436;10.028;2023-05-14T07:17:56;18.90;;;6.32;;
67675;SDS011;54456;48.436;10.028;2023-05-14T07:20:20;14.88;;;5.72;;
67675;SDS011;54456;48.436;10.028;2023-05-14T07:22:42;15.40;;;6.97;;
67675;SDS011;54456;48.436;10.028;2023-05-14T07:25:07;18.48;;;7.40;;
67675;SDS011;54456;48.436;10.028;2023-05-14T07:27:30;13.15;;;5.57;;
67675;SDS011;54456;48.436;10.028;2023-05-14T07:29:53;17.33;;;7.18;;
67675;SDS011;54456;48.436;10.028;2023-05-14T07:32:15;17.73;;;7.22;;
67675;SDS011;54456;48.436;10.028;2023-05-14T07:34:38;13.65;;;5.07;;
67675;SDS011;54456;48.436;10.028;2023-05-14T07:37:01;14.75;;;6.97;;
67675;SDS011;54456;48.436;10.028;2023-05-14T07:39:24;16.02;;;6.68;;
67675;SDS011;54456;48.436;10.028;2023-05-14T07:41:47;17.08;;;6.78;;
67675;SDS011;54456;48.436;10.028;2023-05-14T07:44:10;15.65;;;6.85;;
67675;SDS011;54456;48.436;10.028;2023-05-14T07:46:33;11.90;;;5.40;;
67675;SDS011;54456;48.436;10.028;2023-05-14T07:48:56;14.45;;;6.07;;
67675;SDS011;54456;48.436;10.028;2023-05-14T07:51:23;16.15;;;8.18;;
67675;SDS011;54456;48.436;10.028;2023-05-14T07:53:45;16.50;;;7.30;;
67675;SDS011;54456;48.436;10.028;2023-05-14T07:56:08;18.08;;;7.70;;
67675;SDS011;54456;48.436;10.028;2023-05-14T07:58:31;15.93;;;7.40;;
67675;SDS011;54456;48.436;10.028;2023-05-14T08:00:55;13.70;;;5.45;;
67675;SDS011;54456;48.436;10.028;2023-05-14T08:03:17;12.13;;;5.70;;
67675;SDS011;54456;48.436;10.028;2023-05-14T08:05:40;12.60;;;4.93;;
67675;SDS011;54456;48.436;10.028;2023-05-14T08:08:03;15.05;;;6.40;;
67675;SDS011;54456;48.436;10.028;2023-05-14T08:10:26;12.30;;;5.45;;
67675;SDS011;54456;48.436;10.028;2023-05-14T08:12:50;12.35;;;5.38;;
67675;SDS011;54456;48.436;10.028;2023-05-14T08:15:13;14.50;;;6.80;;
67675;SDS011;54456;48.436;10.028;2023-05-14T08:17:36;11.77;;;5.60;;
67675;SDS011;54456;48.436;10.028;2023-05-14T08:19:59;12.57;;;5.25;;
67675;SDS011;54456;48.436;10.028;2023-05-14T08:22:22;15.57;;;6.60;;
67675;SDS011;54456;48.436;10.028;2023-05-14T08:24:44;14.73;;;6.35;;
67675;SDS011;54456;48.436;10.028;2023-05-14T08:27:08;11.98;;;4.72;;
67675;SDS011;54456;48.436;10.028;2023-05-14T08:29:31;12.60;;;5.03;;
67675;SDS011;54456;48.436;10.028;2023-05-14T08:31:54;14.40;;;6.00;;
67675;SDS011;54456;48.436;10.028;2023-05-14T08:34:17;13.10;;;6.20;;
67675;SDS011;54456;48.436;10.028;2023-05-14T08:36:40;14.82;;;7.28;;
67675;SDS011;54456;48.436;10.028;2023-05-14T08:39:03;15.80;;;7.13;;
67675;SDS011;54456;48.436;10.028;2023-05-14T08:41:25;12.88;;;5.80;;
67675;SDS011;54456;48.436;10.028;2023-05-14T08:43:54;12.43;;;5.90;;
67675;SDS011;54456;48.436;10.028;2023-05-14T08:46:22;13.93;;;7.07;;
67675;SDS011;54456;48.436;10.028;2023-05-14T08:48:46;15.73;;;7.40;;
67675;SDS011;54456;48.436;10.028;2023-05-14T08:51:10;12.45;;;6.20;;
67675;SDS011;54456;48.436;10.028;2023-05-14T08:53:34;14.60;;;6.70;;
67675;SDS011;54456;48.436;10.028;2023-05-14T08:56:00;15.30;;;7.18;;
67675;SDS011;54456;48.436;10.028;2023-05-14T08:58:23;14.88;;;6.47;;
67675;SDS011;54456;48.436;10.028;2023-05-14T09:00:46;14.65;;;6.93;;
67675;SDS011;54456;48.436;10.028;2023-05-14T09:03:12;12.82;;;6.13;;
67675;SDS011;54456;48.436;10.028;2023-05-14T09:05:37;15.63;;;7.43;;
67675;SDS011;54456;48.436;10.028;2023-05-14T09:08:01;11.35;;;5.38;;
67675;SDS011;54456;48.436;10.028;2023-05-14T09:10:24;15.77;;;6.82;;
67675;SDS011;54456;48.436;10.028;2023-05-14T09:12:47;17.55;;;8.25;;
67675;SDS011;54456;48.436;10.028;2023-05-14T09:15:10;16.45;;;7.85;;
67675;SDS011;54456;48.436;10.028;2023-05-14T09:17:33;16.13;;;7.78;;
67675;SDS011;54456;48.436;10.028;2023-05-14T09:19:56;15.05;;;6.68;;
67675;SDS011;54456;48.436;10.028;2023-05-14T09:22:20;11.55;;;5.85;;
67675;SDS011;54456;48.436;10.028;2023-05-14T09:24:44;12.68;;;6.15;;
67675;SDS011;54456;48.436;10.028;2023-05-14T09:27:07;13.23;;;6.28;;
67675;SDS011;54456;48.436;10.028;2023-05-14T09:29:34;14.07;;;6.70;;
67675;SDS011;54456;48.436;10.028;2023-05-14T09:31:58;14.90;;;7.32;;
67675;SDS011;54456;48.436;10.028;2023-05-14T09:36:55;13.50;;;5.63;;
67675;SDS011;54456;48.436;10.028;2023-05-14T09:41:42;14.10;;;6.97;;
67675;SDS011;54456;48.436;10.028;2023-05-14T09:44:05;12.02;;;5.28;;
67675;SDS011;54456;48.436;10.028;2023-05-14T09:46:28;15.13;;;7.25;;
67675;SDS011;54456;48.436;10.028;2023-05-14T09:48:51;15.13;;;7.32;;
67675;SDS011;54456;48.436;10.028;2023-05-14T09:51:17;13.55;;;7.35;;
67675;SDS011;54456;48.436;10.028;2023-05-14T09:53:40;10.63;;;5.13;;
67675;SDS011;54456;48.436;10.028;2023-05-14T09:56:05;13.63;;;6.78;;
67675;SDS011;54456;48.436;10.028;2023-05-14T09:58:28;11.07;;;5.05;;
67675;SDS011;54456;48.436;10.028;2023-05-14T10:00:51;13.82;;;6.72;;
67675;SDS011;54456;48.436;10.028;2023-05-14T10:03:14;13.00;;;6.00;;
67675;SDS011;54456;48.436;10.028;2023-05-14T10:05:37;14.98;;;6.82;;
67675;SDS011;54456;48.436;10.028;2023-05-14T10:08:18;12.77;;;5.90;;
67675;SDS011;54456;48.436;10.028;2023-05-14T10:10:42;12.02;;;6.10;;
67675;SDS011;54456;48.436;10.028;2023-05-14T10:13:09;11.65;;;5.32;;
67675;SDS011;54456;48.436;10.028;2023-05-14T10:18:18;13.65;;;6.47;;
67675;SDS011;54456;48.436;10.028;2023-05-14T10:20:41;12.00;;;6.32;;
67675;SDS011;54456;48.436;10.028;2023-05-14T10:23:05;14.90;;;7.03;;
67675;SDS011;54456;48.436;10.028;2023-05-14T10:25:29;12.55;;;5.70;;
67675;SDS011;54456;48.436;10.028;2023-05-14T10:27:52;12.48;;;6.03;;
67675;SDS011;54456;48.436;10.028;2023-05-14T10:30:15;11.88;;;6.90;;
67675;SDS011;54456;48.436;10.028;2023-05-14T10:32:38;10.70;;;4.90;;
67675;SDS011;54456;48.436;10.028;2023-05-14T10:35:16;11.68;;;5.85;;
67675;SDS011;54456;48.436;10.028;2023-05-14T10:37:39;10.73;;;4.95;;
67675;SDS011;54456;48.436;10.028;2023-05-14T10:40:03;10.65;;;4.63;;
67675;SDS011;54456;48.436;10.028;2023-05-14T10:42:31;10.98;;;4.20;;
67675;SDS011;54456;48.436;10.028;2023-05-14T10:44:56;8.77;;;4.10;;
67675;SDS011;54456;48.436;10.028;2023-05-14T10:47:20;10.15;;;5.35;;
67675;SDS011;54456;48.436;10.028;2023-05-14T10:52:07;9.95;;;5.15;;
67675;SDS011;54456;48.436;10.028;2023-05-14T10:54:31;10.07;;;4.97;;
67675;SDS011;54456;48.436;10.028;2023-05-14T10:56:57;10.50;;;5.15;;
67675;SDS011;54456;48.436;10.028;2023-05-14T10:59:24;9.68;;;4.85;;
67675;SDS011;54456;48.436;10.028;2023-05-14T11:01:06;9.00;;;3.83;;
67675;SDS011;54456;48.436;10.028;2023-05-14T11:03:29;11.48;;;5.65;;
67675;SDS011;54456;48.436;10.028;2023-05-14T11:05:53;10.65;;;4.75;;
67675;SDS011;54456;48.436;10.028;2023-05-14T11:08:16;11.55;;;5.47;;
67675;SDS011;54456;48.436;10.028;2023-05-14T11:10:40;10.10;;;4.57;;
67675;SDS011;54456;48.436;10.028;2023-05-14T11:13:04;10.75;;;5.07;;
67675;SDS011;54456;48.436;10.028;2023-05-14T11:15:27;10.80;;;5.53;;
67675;SDS011;54456;48.436;10.028;2023-05-14T11:17:55;10.43;;;4.35;;
67675;SDS011;54456;48.436;10.028;2023-05-14T11:20:18;9.88;;;5.50;;
67675;SDS011;54456;48.436;10.028;2023-05-14T11:22:42;10.40;;;5.28;;
67675;SDS011;54456;48.436;10.028;2023-05-14T11:25:05;10.45;;;5.07;;
67675;SDS011;54456;48.436;10.028;2023-05-14T11:27:38;10.13;;;5.28;;
67675;SDS011;54456;48.436;10.028;2023-05-14T11:30:01;9.52;;;4.85;;
67675;SDS011;54456;48.436;10.028;2023-05-14T11:32:28;10.48;;;4.80;;
67675;SDS011;54456;48.436;10.028;2023-05-14T11:34:53;9.73;;;4.53;;
67675;SDS011;54456;48.436;10.028;2023-05-14T11:37:21;8.45;;;4.05;;
67675;SDS011;54456;48.436;10.028;2023-05-14T11:39:54;9.20;;;4.32;;
67675;SDS011;54456;48.436;10.028;2023-05-14T11:42:22;8.40;;;4.18;;
67675;SDS011;54456;48.436;10.028;2023-05-14T11:44:48;8.32;;;4.80;;
67675;SDS011;54456;48.436;10.028;2023-05-14T11:47:11;9.48;;;5.30;;
67675;SDS011;54456;48.436;10.028;2023-05-14T11:49:41;7.22;;;3.40;;
67675;SDS011;54456;48.436;10.028;2023-05-14T11:52:06;9.30;;;4.50;;
67675;SDS011;54456;48.436;10.028;2023-05-14T11:54:29;8.60;;;4.18;;
67675;SDS011;54456;48.436;10.028;2023-05-14T11:56:53;8.38;;;4.25;;
67675;SDS011;54456;48.436;10.028;2023-05-14T11:59:16;8.93;;;3.95;;
67675;SDS011;54456;48.436;10.028;2023-05-14T12:01:45;9.20;;;4.43;;
67675;SDS011;54456;48.436;10.028;2023-05-14T12:04:08;8.88;;;4.15;;
67675;SDS011;54456;48.436;10.028;2023-05-14T12:06:31;9.98;;;4.28;;
67675;SDS011;54456;48.436;10.028;2023-05-14T12:08:57;8.77;;;3.92;;
67675;SDS011;54456;48.436;10.028;2023-05-14T12:11:20;8.23;;;4.00;;
67675;SDS011;54456;48.436;10.028;2023-05-14T12:13:43;8.23;;;3.90;;
67675;SDS011;54456;48.436;10.028;2023-05-14T12:16:10;8.10;;;4.00;;
67675;SDS011;54456;48.436;10.028;2023-05-14T12:18:38;8.05;;;3.90;;
67675;SDS011;54456;48.436;10.028;2023-05-14T12:21:02;8.43;;;3.55;;
67675;SDS011;54456;48.436;10.028;2023-05-14T12:23:25;9.23;;;3.92;;
67675;SDS011;54456;48.436;10.028;2023-05-14T12:25:49;8.18;;;3.83;;
67675;SDS011;54456;48.436;10.028;2023-05-14T12:28:16;7.30;;;2.78;;
67675;SDS011;54456;48.436;10.028;2023-05-14T12:30:41;8.63;;;3.53;;
67675;SDS011;54456;48.436;10.028;2023-05-14T12:33:04;8.10;;;3.38;;
67675;SDS011;54456;48.436;10.028;2023-05-14T12:35:27;11.07;;;3.88;;
67675;SDS011;54456;48.436;10.028;2023-05-14T12:37:49;9.75;;;4.55;;
67675;SDS011;54456;48.436;10.028;2023-05-14T12:40:12;9.57;;;4.53;;
67675;SDS011;54456;48.436;10.028;2023-05-14T12:42:35;10.27;;;5.15;;
67675;SDS011;54456;48.436;10.028;2023-05-14T12:45:00;9.85;;;4.65;;
67675;SDS011;54456;48.436;10.028;2023-05-14T12:47:23;10.25;;;4.80;;
67675;SDS011;54456;48.436;10.028;2023-05-14T12:49:46;9.80;;;4.80;;
67675;SDS011;54456;48.436;10.028;2023-05-14T12:52:09;9.20;;;4.47;;
67675;SDS011;54456;48.436;10.028;2023-05-14T12:54:32;10.20;;;4.38;;
67675;SDS011;54456;48.436;10.028;2023-05-14T12:56:54;8.88;;;4.22;;
67675;SDS011;54456;48.436;10.028;2023-05-14T12:59:17;8.57;;;3.78;;
67675;SDS011;54456;48.436;10.028;2023-05-14T13:01:41;9.40;;;3.63;;
67675;SDS011;54456;48.436;10.028;2023-05-14T13:04:04;6.32;;;2.83;;
67675;SDS011;54456;48.436;10.028;2023-05-14T13:05:49;7.30;;;3.30;;
67675;SDS011;54456;48.436;10.028;2023-05-14T13:07:30;7.38;;;3.47;;
67675;SDS011;54456;48.436;10.028;2023-05-14T13:09:56;8.48;;;4.38;;
67675;SDS011;54456;48.436;10.028;2023-05-14T13:12:19;7.43;;;3.42;;
67675;SDS011;54456;48.436;10.028;2023-05-14T13:14:44;8.35;;;3.45;;
67675;SDS011;54456;48.436;10.028;2023-05-14T13:17:05;6.82;;;3.10;;
67675;SDS011;54456;48.436;10.028;2023-05-14T13:19:28;7.43;;;3.80;;
67675;SDS011;54456;48.436;10.028;2023-05-14T13:21:26;10.25;;;4.03;;
67675;SDS011;54456;48.436;10.028;2023-05-14T13:23:17;8.95;;;3.92;;
67675;SDS011;54456;48.436;10.028;2023-05-14T13:25:17;7.95;;;3.90;;
67675;SDS011;54456;48.436;10.028;2023-05-14T13:27:40;9.18;;;3.63;;
67675;SDS011;54456;48.436;10.028;2023-05-14T13:30:03;7.32;;;3.47;;
67675;SDS011;54456;48.436;10.028;2023-05-14T13:32:42;9.98;;;3.35;;
67675;SDS011;54456;48.436;10.028;2023-05-14T13:35:05;8.55;;;3.40;;
67675;SDS011;54456;48.436;10.028;2023-05-14T13:37:28;8.20;;;4.25;;
67675;SDS011;54456;48.436;10.028;2023-05-14T13:39:51;7.32;;;3.63;;
67675;SDS011;54456;48.436;10.028;2023-05-14T13:42:14;8.13;;;3.75;;
67675;SDS011;54456;48.436;10.028;2023-05-14T13:44:37;8.20;;;4.07;;
67675;SDS011;54456;48.436;10.028;2023-05-14T13:47:00;7.88;;;3.80;;
67675;SDS011;54456;48.436;10.028;2023-05-14T13:49:25;9.65;;;4.30;;
67675;SDS011;54456;48.436;10.028;2023-05-14T13:51:48;8.23;;;4.10;;
67675;SDS011;54456;48.436;10.028;2023-05-14T13:54:11;9.45;;;4.90;;
67675;SDS011;54456;48.436;10.028;2023-05-14T13:56:34;9.65;;;4.55;;
67675;SDS011;54456;48.436;10.028;2023-05-14T13:58:57;9.13;;;3.85;;
67675;SDS011;54456;48.436;10.028;2023-05-14T14:01:20;7.82;;;3.72;;
67675;SDS011;54456;48.436;10.028;2023-05-14T14:02:56;7.32;;;3.38;;
67675;SDS011;54456;48.436;10.028;2023-05-14T14:05:11;6.95;;;2.90;;
67675;SDS011;54456;48.436;10.028;2023-05-14T14:07:34;7.97;;;3.38;;
67675;SDS011;54456;48.436;10.028;2023-05-14T14:09:57;7.78;;;3.20;;
67675;SDS011;54456;48.436;10.028;2023-05-14T14:12:21;7.05;;;3.13;;
67675;SDS011;54456;48.436;10.028;2023-05-14T14:14:44;9.13;;;4.47;;
67675;SDS011;54456;48.436;10.028;2023-05-14T14:16:20;7.72;;;3.50;;
67675;SDS011;54456;48.436;10.028;2023-05-14T14:18:43;8.13;;;3.72;;
67675;SDS011;54456;48.436;10.028;2023-05-14T14:21:06;8.38;;;3.55;;
67675;SDS011;54456;48.436;10.028;2023-05-14T14:23:28;8.73;;;4.03;;
67675;SDS011;54456;48.436;10.028;2023-05-14T14:25:51;8.75;;;3.95;;
67675;SDS011;54456;48.436;10.028;2023-05-14T14:28:14;7.75;;;3.88;;
67675;SDS011;54456;48.436;10.028;2023-05-14T14:30:37;10.05;;;4.72;;
67675;SDS011;54456;48.436;10.028;2023-05-14T14:33:00;10.30;;;4.28;;
67675;SDS011;54456;48.436;10.028;2023-05-14T14:35:23;8.85;;;3.85;;
67675;SDS011;54456;48.436;10.028;2023-05-14T14:37:46;8.40;;;3.90;;
67675;SDS011;54456;48.436;10.028;2023-05-14T14:40:09;8.35;;;4.13;;
67675;SDS011;54456;48.436;10.028;2023-05-14T14:42:33;7.88;;;3.70;;
67675;SDS011;54456;48.436;10.028;2023-05-14T14:44:56;9.18;;;3.90;;
67675;SDS011;54456;48.436;10.028;2023-05-14T14:47:18;9.32;;;3.75;;
67675;SDS011;54456;48.436;10.028;2023-05-14T14:50:13;11.15;;;4.85;;
67675;SDS011;54456;48.436;10.028;2023-05-14T14:52:37;10.48;;;4.47;;
67675;SDS011;54456;48.436;10.028;2023-05-14T14:55:00;10.85;;;4.00;;
67675;SDS011;54456;48.436;10.028;2023-05-14T14:57:23;10.25;;;5.20;;
67675;SDS011;54456;48.436;10.028;2023-05-14T14:59:47;12.98;;;4.18;;
67675;SDS011;54456;48.436;10.028;2023-05-14T15:02:10;7.82;;;3.70;;
67675;SDS011;54456;48.436;10.028;2023-05-14T15:04:33;8.00;;;3.72;;
67675;SDS011;54456;48.436;10.028;2023-05-14T15:06:55;9.90;;;3.90;;
67675;SDS011;54456;48.436;10.028;2023-05-14T15:09:18;9.27;;;3.85;;
67675;SDS011;54456;48.436;10.028;2023-05-14T15:11:41;11.02;;;4.45;;
67675;SDS011;54456;48.436;10.028;2023-05-14T15:14:04;11.63;;;4.45;;
67675;SDS011;54456;48.436;10.028;2023-05-14T15:16:27;10.68;;;4.70;;
67675;SDS011;54456;48.436;10.028;2023-05-14T15:18:50;11.80;;;5.18;;
67675;SDS011;54456;48.436;10.028;2023-05-14T15:21:13;12.77;;;6.00;;
67675;SDS011;54456;48.436;10.028;2023-05-14T15:23:36;12.75;;;5.50;;
67675;SDS011;54456;48.436;10.028;2023-05-14T15:25:59;13.48;;;6.85;;
67675;SDS011;54456;48.436;10.028;2023-05-14T15:28:22;14.20;;;6.70;;
67675;SDS011;54456;48.436;10.028;2023-05-14T15:30:46;15.23;;;7.43;;
67675;SDS011;54456;48.436;10.028;2023-05-14T15:33:10;14.13;;;6.82;;
67675;SDS011;54456;48.436;10.028;2023-05-14T15:35:33;14.65;;;6.63;;
67675;SDS011;54456;48.436;10.028;2023-05-14T15:37:55;15.55;;;7.07;;
67675;SDS011;54456;48.436;10.028;2023-05-14T15:40:18;16.40;;;7.82;;
67675;SDS011;54456;48.436;10.028;2023-05-14T15:42:42;14.68;;;7.22;;
67675;SDS011;54456;48.436;10.028;2023-05-14T15:45:05;16.23;;;8.15;;
67675;SDS011;54456;48.436;10.028;2023-05-14T15:47:28;16.27;;;8.10;;
67675;SDS011;54456;48.436;10.028;2023-05-14T15:49:51;15.80;;;7.75;;
67675;SDS011;54456;48.436;10.028;2023-05-14T15:52:16;15.10;;;8.20;;
67675;SDS011;54456;48.436;10.028;2023-05-14T15:54:39;13.93;;;6.80;;
67675;SDS011;54456;48.436;10.028;2023-05-14T15:57:01;13.80;;;6.80;;
67675;SDS011;54456;48.436;10.028;2023-05-14T15:59:25;15.00;;;7.13;;
67675;SDS011;54456;48.436;10.028;2023-05-14T16:01:49;17.20;;;8.48;;
67675;SDS011;54456;48.436;10.028;2023-05-14T16:04:10;17.15;;;8.15;;
67675;SDS011;54456;48.436;10.028;2023-05-14T16:06:34;15.80;;;8.10;;
67675;SDS011;54456;48.436;10.028;2023-05-14T16:08:56;18.13;;;9.00;;
67675;SDS011;54456;48.436;10.028;2023-05-14T16:11:20;17.65;;;9.57;;
67675;SDS011;54456;48.436;10.028;2023-05-14T16:13:43;17.40;;;8.35;;
67675;SDS011;54456;48.436;10.028;2023-05-14T16:16:06;16.58;;;7.93;;
67675;SDS011;54456;48.436;10.028;2023-05-14T16:18:31;14.57;;;7.55;;
67675;SDS011;54456;48.436;10.028;2023-05-14T16:20:54;15.80;;;7.07;;
67675;SDS011;54456;48.436;10.028;2023-05-14T16:23:17;17.35;;;8.10;;
67675;SDS011;54456;48.436;10.028;2023-05-14T16:25:41;16.70;;;7.82;;
67675;SDS011;54456;48.436;10.028;2023-05-14T16:28:04;18.02;;;8.40;;
67675;SDS011;54456;48.436;10.028;2023-05-14T16:30:27;15.65;;;7.05;;
67675;SDS011;54456;48.436;10.028;2023-05-14T16:32:50;15.00;;;7.20;;
67675;SDS011;54456;48.436;10.028;2023-05-14T16:35:13;16.35;;;7.38;;
67675;SDS011;54456;48.436;10.028;2023-05-14T16:37:36;16.42;;;7.35;;
67675;SDS011;54456;48.436;10.028;2023-05-14T16:39:58;15.80;;;7.25;;
67675;SDS011;54456;48.436;10.028;2023-05-14T16:42:21;14.23;;;7.03;;
67675;SDS011;54456;48.436;10.028;2023-05-14T16:44:44;13.52;;;6.47;;
67675;SDS011;54456;48.436;10.028;2023-05-14T16:47:09;15.80;;;6.93;;
67675;SDS011;54456;48.436;10.028;2023-05-14T16:49:32;12.93;;;6.32;;
67675;SDS011;54456;48.436;10.028;2023-05-14T16:51:56;12.82;;;6.38;;
67675;SDS011;54456;48.436;10.028;2023-05-14T16:54:18;14.55;;;7.22;;
67675;SDS011;54456;48.436;10.028;2023-05-14T16:56:41;14.00;;;6.40;;
67675;SDS011;54456;48.436;10.028;2023-05-14T16:59:04;12.90;;;6.30;;
67675;SDS011;54456;48.436;10.028;2023-05-14T17:01:27;12.75;;;5.50;;
67675;SDS011;54456;48.436;10.028;2023-05-14T17:03:50;10.93;;;5.53;;
67675;SDS011;54456;48.436;10.028;2023-05-14T17:06:13;10.93;;;4.95;;
67675;SDS011;54456;48.436;10.028;2023-05-14T17:08:36;10.50;;;4.95;;
67675;SDS011;54456;48.436;10.028;2023-05-14T17:10:59;10.63;;;5.15;;
67675;SDS011;54456;48.436;10.028;2023-05-14T17:13:22;9.00;;;4.13;;
67675;SDS011;54456;48.436;10.028;2023-05-14T17:15:45;10.85;;;3.90;;
67675;SDS011;54456;48.436;10.028;2023-05-14T17:18:09;9.50;;;4.20;;
67675;SDS011;54456;48.436;10.028;2023-05-14T17:20:32;9.15;;;3.92;;
67675;SDS011;54456;48.436;10.028;2023-05-14T17:22:55;8.63;;;3.63;;
67675;SDS011;54456;48.436;10.028;2023-05-14T17:25:18;9.05;;;3.38;;
67675;SDS011;54456;48.436;10.028;2023-05-14T17:27:41;7.68;;;3.35;;
67675;SDS011;54456;48.436;10.028;2023-05-14T17:30:04;7.47;;;3.47;;
67675;SDS011;54456;48.436;10.028;2023-05-14T17:32:27;6.40;;;2.83;;
67675;SDS011;54456;48.436;10.028;2023-05-14T17:34:50;6.18;;;2.60;;
67675;SDS011;54456;48.436;10.028;2023-05-14T17:37:14;6.75;;;2.83;;
67675;SDS011;54456;48.436;10.028;2023-05-14T17:39:37;6.55;;;2.80;;
67675;SDS011;54456;48.436;10.028;2023-05-14T17:42:00;7.72;;;2.63;;
67675;SDS011;54456;48.436;10.028;2023-05-14T17:44:23;6.50;;;2.65;;
67675;SDS011;54456;48.436;10.028;2023-05-14T17:45:53;5.85;;;2.60;;
67675;SDS011;54456;48.436;10.028;2023-05-14T17:47:24;5.17;;;2.37;;
67675;SDS011;54456;48.436;10.028;2023-05-14T17:49:47;8.00;;;2.95;;
67675;SDS011;54456;48.436;10.028;2023-05-14T17:52:10;5.85;;;2.40;;
67675;SDS011;54456;48.436;10.028;2023-05-14T17:54:33;7.15;;;2.55;;
67675;SDS011;54456;48.436;10.028;2023-05-14T17:56:56;6.22;;;2.47;;
67675;SDS011;54456;48.436;10.028;2023-05-14T17:59:18;6.78;;;2.17;;
67675;SDS011;54456;48.436;10.028;2023-05-14T18:01:42;6.43;;;2.50;;
67675;SDS011;54456;48.436;10.028;2023-05-14T18:04:05;6.32;;;2.78;;
67675;SDS011;54456;48.436;10.028;2023-05-14T18:06:29;6.95;;;3.40;;
67675;SDS011;54456;48.436;10.028;2023-05-14T18:08:52;6.65;;;2.70;;
67675;SDS011;54456;48.436;10.028;2023-05-14T18:11:14;7.07;;;3.70;;
67675;SDS011;54456;48.436;10.028;2023-05-14T18:13:37;5.97;;;2.75;;
67675;SDS011;54456;48.436;10.028;2023-05-14T18:16:00;7.28;;;2.63;;
67675;SDS011;54456;48.436;10.028;2023-05-14T18:18:24;8.20;;;2.70;;
67675;SDS011;54456;48.436;10.028;2023-05-14T18:20:47;6.40;;;2.72;;
67675;SDS011;54456;48.436;10.028;2023-05-14T18:23:11;6.45;;;2.90;;
67675;SDS011;54456;48.436;10.028;2023-05-14T18:25:34;6.80;;;2.60;;
67675;SDS011;54456;48.436;10.028;2023-05-14T18:27:57;5.13;;;2.30;;
67675;SDS011;54456;48.436;10.028;2023-05-14T18:30:20;6.57;;;2.60;;
67675;SDS011;54456;48.436;10.028;2023-05-14T18:32:43;6.22;;;2.70;;
67675;SDS011;54456;48.436;10.028;2023-05-14T18:35:06;6.38;;;2.42;;
67675;SDS011;54456;48.436;10.028;2023-05-14T18:37:30;6.38;;;2.50;;
67675;SDS011;54456;48.436;10.028;2023-05-14T18:39:53;5.80;;;2.42;;
67675;SDS011;54456;48.436;10.028;2023-05-14T18:42:16;5.65;;;2.60;;
67675;SDS011;54456;48.436;10.028;2023-05-14T18:44:40;5.97;;;2.45;;
67675;SDS011;54456;48.436;10.028;2023-05-14T18:47:03;6.78;;;2.63;;
67675;SDS011;54456;48.436;10.028;2023-05-14T18:49:26;6.47;;;2.85;;
67675;SDS011;54456;48.436;10.028;2023-05-14T18:51:49;6.35;;;2.70;;
67675;SDS011;54456;48.436;10.028;2023-05-14T18:54:12;7.30;;;2.95;;
67675;SDS011;54456;48.436;10.028;2023-05-14T18:56:35;6.38;;;2.90;;
67675;SDS011;54456;48.436;10.028;2023-05-14T18:58:58;7.50;;;2.95;;
67675;SDS011;54456;48.436;10.028;2023-05-14T19:01:21;7.78;;;3.75;;
67675;SDS011;54456;48.436;10.028;2023-05-14T19:03:44;9.10;;;3.28;;
67675;SDS011;54456;48.436;10.028;2023-05-14T19:06:06;10.43;;;4.00;;
67675;SDS011;54456;48.436;10.028;2023-05-14T19:08:29;7.35;;;3.33;;
67675;SDS011;54456;48.436;10.028;2023-05-14T19:10:52;7.90;;;3.47;;
67675;SDS011;54456;48.436;10.028;2023-05-14T19:13:16;8.85;;;3.45;;
67675;SDS011;54456;48.436;10.028;2023-05-14T19:15:38;8.68;;;3.45;;
67675;SDS011;54456;48.436;10.028;2023-05-14T19:18:01;8.75;;;3.85;;
67675;SDS011;54456;48.436;10.028;2023-05-14T19:20:31;7.78;;;3.22;;
67675;SDS011;54456;48.436;10.028;2023-05-14T19:22:54;7.47;;;3.15;;
67675;SDS011;54456;48.436;10.028;2023-05-14T19:25:17;7.03;;;3.20;;
67675;SDS011;54456;48.436;10.028;2023-05-14T19:27:39;9.30;;;2.95;;
67675;SDS011;54456;48.436;10.028;2023-05-14T19:30:02;8.88;;;3.38;;
67675;SDS011;54456;48.436;10.028;2023-05-14T19:32:26;9.05;;;3.47;;
67675;SDS011;54456;48.436;10.028;2023-05-14T19:34:49;7.93;;;3.15;;
67675;SDS011;54456;48.436;10.028;2023-05-14T19:37:12;7.25;;;3.67;;
67675;SDS011;54456;48.436;10.028;2023-05-14T19:39:34;6.97;;;3.05;;
67675;SDS011;54456;48.436;10.028;2023-05-14T19:41:57;7.78;;;3.08;;
67675;SDS011;54456;48.436;10.028;2023-05-14T19:44:20;7.57;;;3.40;;
67675;SDS011;54456;48.436;10.028;2023-05-14T19:46:43;7.75;;;3.05;;
67675;SDS011;54456;48.436;10.028;2023-05-14T19:49:06;8.40;;;3.30;;
67675;SDS011;54456;48.436;10.028;2023-05-14T19:51:29;8.73;;;3.38;;
67675;SDS011;54456;48.436;10.028;2023-05-14T19:53:52;8.35;;;3.70;;
67675;SDS011;54456;48.436;10.028;2023-05-14T19:56:15;8.30;;;3.65;;
67675;SDS011;54456;48.436;10.028;2023-05-14T19:58:38;8.88;;;3.97;;
67675;SDS011;54456;48.436;10.028;2023-05-14T20:01:01;8.40;;;3.95;;
67675;SDS011;54456;48.436;10.028;2023-05-14T20:03:23;8.63;;;3.65;;
67675;SDS011;54456;48.436;10.028;2023-05-14T20:05:46;9.55;;;3.92;;
67675;SDS011;54456;48.436;10.028;2023-05-14T20:08:10;8.52;;;3.88;;
67675;SDS011;54456;48.436;10.028;2023-05-14T20:10:34;8.43;;;3.90;;
67675;SDS011;54456;48.436;10.028;2023-05-14T20:12:57;10.23;;;4.28;;
67675;SDS011;54456;48.436;10.028;2023-05-14T20:15:20;9.95;;;4.05;;
67675;SDS011;54456;48.436;10.028;2023-05-14T20:17:45;8.40;;;3.80;;
67675;SDS011;54456;48.436;10.028;2023-05-14T20:20:09;12.43;;;4.05;;
67675;SDS011;54456;48.436;10.028;2023-05-14T20:22:32;9.82;;;3.70;;
67675;SDS011;54456;48.436;10.028;2023-05-14T20:24:55;9.27;;;3.60;;
67675;SDS011;54456;48.436;10.028;2023-05-14T20:27:18;8.98;;;3.67;;
67675;SDS011;54456;48.436;10.028;2023-05-14T20:29:41;9.95;;;4.72;;
67675;SDS011;54456;48.436;10.028;2023-05-14T20:32:04;9.48;;;4.38;;
67675;SDS011;54456;48.436;10.028;2023-05-14T20:34:27;10.85;;;4.65;;
67675;SDS011;54456;48.436;10.028;2023-05-14T20:36:50;10.00;;;4.35;;
67675;SDS011;54456;48.436;10.028;2023-05-14T20:39:13;10.60;;;4.72;;
67675;SDS011;54456;48.436;10.028;2023-05-14T20:41:41;11.13;;;5.15;;
67675;SDS011;54456;48.436;10.028;2023-05-14T20:44:05;10.70;;;5.20;;
67675;SDS011;54456;48.436;10.028;2023-05-14T20:46:28;10.93;;;4.75;;
67675;SDS011;54456;48.436;10.028;2023-05-14T20:48:53;10.63;;;4.63;;
67675;SDS011;54456;48.436;10.028;2023-05-14T20:51:17;13.85;;;5.45;;
67675;SDS011;54456;48.436;10.028;2023-05-14T20:53:40;11.93;;;5.10;;
67675;SDS011;54456;48.436;10.028;2023-05-14T20:56:03;11.32;;;4.45;;
67675;SDS011;54456;48.436;10.028;2023-05-14T20:58:26;10.70;;;4.40;;
67675;SDS011;54456;48.436;10.028;2023-05-14T21:00:49;10.82;;;4.50;;
67675;SDS011;54456;48.436;10.028;2023-05-14T21:03:19;11.93;;;4.68;;